sensor_id;sensor_type;location;lat;lon;timestamp;P1;durP1;ratioP1;P2;durP2;ratioP2
71423;SDS011;59240;51.370;-0.486;2023-01-19T00:00:49;8.60;;;2.17;;
71423;SDS011;59240;51.370;-0.486;2023-01-19T00:03:16;9.18;;;2.30;;
71423;SDS011;59240;51.370;-0.486;2023-01-19T00:05:46;12.90;;;2.25;;
71423;SDS011;59240;51.370;-0.486;2023-01-19T00:08:14;12.07;;;2.77;;
71423;SDS011;59240;51.370;-0.486;2023-01-19T00:10:41;11.18;;;1.95;;
71423;SDS011;59240;51.370;-0.486;2023-01-19T00:13:10;7.45;;;1.80;;
71423;SDS011;59240;51.370;-0.486;2023-01-19T00:15:38;11.48;;;2.08;;
71423;SDS011;59240;51.370;-0.486;2023-01-19T00:18:05;10.27;;;2.42;;
71423;SDS011;59240;51.370;-0.486;2023-01-19T00:20:34;8.47;;;2.53;;
71423;SDS011;59240;51.370;-0.486;2023-01-19T00:23:01;8.52;;;1.90;;
71423;SDS011;59240;51.370;-0.486;2023-01-19T00:25:29;8.20;;;1.98;;
71423;SDS011;59240;51.370;-0.486;2023-01-19T00:27:57;11.13;;;1.80;;
71423;SDS011;59240;51.370;-0.486;2023-01-19T00:30:26;6.68;;;1.67;;
71423;SDS011;59240;51.370;-0.486;2023-01-19T00:32:53;10.77;;;1.80;;
71423;SDS011;59240;51.370;-0.486;2023-01-19T00:35:20;8.02;;;2.00;;
71423;SDS011;59240;51.370;-0.486;2023-01-19T00:37:46;10.13;;;3.00;;
71423;SDS011;59240;51.370;-0.486;2023-01-19T00:40:13;11.65;;;3.42;;
71423;SDS011;59240;51.370;-0.486;2023-01-19T00:42:40;13.73;;;3.75;;
71423;SDS011;59240;51.370;-0.486;2023-01-19T00:45:10;17.63;;;4.10;;
71423;SDS011;59240;51.370;-0.486;2023-01-19T00:47:38;23.60;;;5.95;;
71423;SDS011;59240;51.370;-0.486;2023-01-19T00:50:06;13.80;;;4.32;;
71423;SDS011;59240;51.370;-0.486;2023-01-19T00:52:40;10.50;;;2.75;;
71423;SDS011;59240;51.370;-0.486;2023-01-19T00:55:07;9.52;;;2.67;;
71423;SDS011;59240;51.370;-0.486;2023-01-19T00:57:38;10.00;;;2.70;;
71423;SDS011;59240;51.370;-0.486;2023-01-19T01:00:08;8.52;;;2.47;;
71423;SDS011;59240;51.370;-0.486;2023-01-19T01:02:37;11.05;;;2.85;;
71423;SDS011;59240;51.370;-0.486;2023-01-19T01:05:06;14.98;;;2.80;;
71423;SDS011;59240;51.370;-0.486;2023-01-19T01:07:34;12.10;;;2.75;;
71423;SDS011;59240;51.370;-0.486;2023-01-19T01:10:07;11.40;;;2.17;;
71423;SDS011;59240;51.370;-0.486;2023-01-19T01:12:35;11.65;;;1.83;;
71423;SDS011;59240;51.370;-0.486;2023-01-19T01:15:03;10.40;;;2.00;;
71423;SDS011;59240;51.370;-0.486;2023-01-19T01:17:32;13.68;;;1.77;;
71423;SDS011;59240;51.370;-0.486;2023-01-19T01:19:58;12.18;;;3.30;;
71423;SDS011;59240;51.370;-0.486;2023-01-19T01:22:25;16.90;;;4.77;;
71423;SDS011;59240;51.370;-0.486;2023-01-19T01:24:52;8.50;;;2.15;;
71423;SDS011;59240;51.370;-0.486;2023-01-19T01:27:19;8.77;;;1.55;;
71423;SDS011;59240;51.370;-0.486;2023-01-19T01:29:46;9.93;;;1.75;;
71423;SDS011;59240;51.370;-0.486;2023-01-19T01:32:13;10.60;;;2.33;;
71423;SDS011;59240;51.370;-0.486;2023-01-19T01:34:41;11.53;;;2.37;;
71423;SDS011;59240;51.370;-0.486;2023-01-19T01:37:08;8.55;;;2.08;;
71423;SDS011;59240;51.370;-0.486;2023-01-19T01:39:35;8.23;;;1.77;;
71423;SDS011;59240;51.370;-0.486;2023-01-19T01:42:02;9.15;;;2.08;;
71423;SDS011;59240;51.370;-0.486;2023-01-19T01:44:47;9.60;;;1.83;;
71423;SDS011;59240;51.370;-0.486;2023-01-19T01:47:29;12.23;;;1.70;;
71423;SDS011;59240;51.370;-0.486;2023-01-19T01:52:52;10.02;;;1.95;;
71423;SDS011;59240;51.370;-0.486;2023-01-19T01:55:41;11.32;;;2.55;;
71423;SDS011;59240;51.370;-0.486;2023-01-19T01:58:13;12.27;;;1.88;;
71423;SDS011;59240;51.370;-0.486;2023-01-19T02:00:41;9.07;;;1.70;;
71423;SDS011;59240;51.370;-0.486;2023-01-19T02:03:27;11.48;;;2.38;;
71423;SDS011;59240;51.370;-0.486;2023-01-19T02:05:55;7.70;;;1.48;;
71423;SDS011;59240;51.370;-0.486;2023-01-19T02:08:40;6.05;;;1.83;;
71423;SDS011;59240;51.370;-0.486;2023-01-19T02:11:30;10.15;;;2.38;;
71423;SDS011;59240;51.370;-0.486;2023-01-19T02:14:17;10.67;;;2.07;;
71423;SDS011;59240;51.370;-0.486;2023-01-19T02:16:44;7.78;;;2.00;;
71423;SDS011;59240;51.370;-0.486;2023-01-19T02:19:12;10.00;;;1.98;;
71423;SDS011;59240;51.370;-0.486;2023-01-19T02:21:54;10.15;;;1.90;;
71423;SDS011;59240;51.370;-0.486;2023-01-19T02:24:32;5.18;;;1.73;;
71423;SDS011;59240;51.370;-0.486;2023-01-19T02:26:59;7.90;;;2.17;;
71423;SDS011;59240;51.370;-0.486;2023-01-19T02:29:26;10.02;;;2.13;;
71423;SDS011;59240;51.370;-0.486;2023-01-19T02:31:53;11.88;;;2.00;;
71423;SDS011;59240;51.370;-0.486;2023-01-19T02:34:21;11.77;;;2.38;;
71423;SDS011;59240;51.370;-0.486;2023-01-19T02:39:40;8.70;;;1.70;;
71423;SDS011;59240;51.370;-0.486;2023-01-19T02:42:14;8.15;;;1.63;;
71423;SDS011;59240;51.370;-0.486;2023-01-19T02:44:47;7.75;;;1.88;;
71423;SDS011;59240;51.370;-0.486;2023-01-19T02:47:16;9.00;;;1.52;;
71423;SDS011;59240;51.370;-0.486;2023-01-19T02:49:43;9.50;;;1.60;;
71423;SDS011;59240;51.370;-0.486;2023-01-19T02:52:14;8.97;;;2.07;;
71423;SDS011;59240;51.370;-0.486;2023-01-19T03:00:51;9.68;;;1.98;;
71423;SDS011;59240;51.370;-0.486;2023-01-19T03:03:48;11.63;;;2.13;;
71423;SDS011;59240;51.370;-0.486;2023-01-19T03:09:03;9.68;;;1.88;;
71423;SDS011;59240;51.370;-0.486;2023-01-19T03:11:49;7.38;;;1.63;;
71423;SDS011;59240;51.370;-0.486;2023-01-19T03:14:20;7.80;;;2.00;;
71423;SDS011;59240;51.370;-0.486;2023-01-19T03:16:58;7.78;;;1.70;;
71423;SDS011;59240;51.370;-0.486;2023-01-19T03:19:33;6.87;;;1.40;;
71423;SDS011;59240;51.370;-0.486;2023-01-19T03:22:06;8.85;;;1.75;;
71423;SDS011;59240;51.370;-0.486;2023-01-19T03:24:39;6.50;;;2.00;;
71423;SDS011;59240;51.370;-0.486;2023-01-19T03:27:10;12.43;;;1.90;;
71423;SDS011;59240;51.370;-0.486;2023-01-19T03:29:40;5.63;;;1.58;;
71423;SDS011;59240;51.370;-0.486;2023-01-19T03:32:11;6.07;;;1.80;;
71423;SDS011;59240;51.370;-0.486;2023-01-19T03:34:41;9.63;;;1.80;;
71423;SDS011;59240;51.370;-0.486;2023-01-19T03:37:10;9.18;;;1.90;;
71423;SDS011;59240;51.370;-0.486;2023-01-19T03:39:39;7.32;;;1.67;;
71423;SDS011;59240;51.370;-0.486;2023-01-19T03:42:08;7.20;;;1.80;;
71423;SDS011;59240;51.370;-0.486;2023-01-19T03:44:38;8.10;;;2.30;;
71423;SDS011;59240;51.370;-0.486;2023-01-19T03:47:07;8.32;;;1.92;;
71423;SDS011;59240;51.370;-0.486;2023-01-19T03:49:37;6.05;;;1.52;;
71423;SDS011;59240;51.370;-0.486;2023-01-19T03:52:06;6.38;;;2.03;;
71423;SDS011;59240;51.370;-0.486;2023-01-19T03:54:33;11.27;;;1.77;;
71423;SDS011;59240;51.370;-0.486;2023-01-19T03:57:00;7.20;;;1.60;;
71423;SDS011;59240;51.370;-0.486;2023-01-19T03:59:26;9.48;;;1.67;;
71423;SDS011;59240;51.370;-0.486;2023-01-19T04:01:53;5.72;;;1.60;;
71423;SDS011;59240;51.370;-0.486;2023-01-19T04:04:20;7.55;;;1.98;;
71423;SDS011;59240;51.370;-0.486;2023-01-19T04:06:47;7.95;;;2.13;;
71423;SDS011;59240;51.370;-0.486;2023-01-19T04:09:13;7.50;;;2.07;;
71423;SDS011;59240;51.370;-0.486;2023-01-19T04:11:40;8.43;;;2.08;;
71423;SDS011;59240;51.370;-0.486;2023-01-19T04:14:06;9.88;;;2.03;;
71423;SDS011;59240;51.370;-0.486;2023-01-19T04:16:33;12.18;;;1.90;;
71423;SDS011;59240;51.370;-0.486;2023-01-19T04:19:00;9.13;;;2.22;;
71423;SDS011;59240;51.370;-0.486;2023-01-19T04:21:27;9.27;;;1.80;;
71423;SDS011;59240;51.370;-0.486;2023-01-19T04:23:53;10.40;;;2.00;;
71423;SDS011;59240;51.370;-0.486;2023-01-19T04:26:20;6.28;;;1.55;;
71423;SDS011;59240;51.370;-0.486;2023-01-19T04:28:46;12.00;;;1.95;;
71423;SDS011;59240;51.370;-0.486;2023-01-19T04:31:13;7.03;;;2.17;;
71423;SDS011;59240;51.370;-0.486;2023-01-19T04:33:40;7.73;;;1.87;;
71423;SDS011;59240;51.370;-0.486;2023-01-19T04:36:06;13.73;;;2.28;;
71423;SDS011;59240;51.370;-0.486;2023-01-19T04:38:34;8.57;;;2.03;;
71423;SDS011;59240;51.370;-0.486;2023-01-19T04:41:00;8.50;;;2.40;;
71423;SDS011;59240;51.370;-0.486;2023-01-19T04:43:27;8.07;;;1.77;;
71423;SDS011;59240;51.370;-0.486;2023-01-19T04:45:53;10.83;;;2.10;;
71423;SDS011;59240;51.370;-0.486;2023-01-19T04:48:20;7.60;;;1.85;;
71423;SDS011;59240;51.370;-0.486;2023-01-19T04:50:47;10.68;;;2.00;;
71423;SDS011;59240;51.370;-0.486;2023-01-19T04:53:16;7.40;;;2.20;;
71423;SDS011;59240;51.370;-0.486;2023-01-19T04:55:43;9.20;;;2.20;;
71423;SDS011;59240;51.370;-0.486;2023-01-19T04:58:10;9.33;;;2.33;;
71423;SDS011;59240;51.370;-0.486;2023-01-19T05:00:37;11.23;;;1.92;;
71423;SDS011;59240;51.370;-0.486;2023-01-19T05:03:03;7.40;;;2.10;;
71423;SDS011;59240;51.370;-0.486;2023-01-19T05:05:31;14.20;;;4.15;;
71423;SDS011;59240;51.370;-0.486;2023-01-19T05:07:58;12.25;;;4.55;;
71423;SDS011;59240;51.370;-0.486;2023-01-19T05:10:26;15.33;;;5.37;;
71423;SDS011;59240;51.370;-0.486;2023-01-19T05:12:52;14.93;;;5.20;;
71423;SDS011;59240;51.370;-0.486;2023-01-19T05:15:19;10.10;;;3.65;;
71423;SDS011;59240;51.370;-0.486;2023-01-19T05:17:46;13.13;;;3.58;;
71423;SDS011;59240;51.370;-0.486;2023-01-19T05:20:13;9.65;;;2.33;;
71423;SDS011;59240;51.370;-0.486;2023-01-19T05:22:42;12.10;;;2.27;;
71423;SDS011;59240;51.370;-0.486;2023-01-19T05:25:13;8.05;;;2.00;;
71423;SDS011;59240;51.370;-0.486;2023-01-19T05:27:40;7.10;;;1.73;;
71423;SDS011;59240;51.370;-0.486;2023-01-19T05:30:06;11.90;;;2.40;;
71423;SDS011;59240;51.370;-0.486;2023-01-19T05:32:34;9.27;;;2.72;;
71423;SDS011;59240;51.370;-0.486;2023-01-19T05:35:00;9.07;;;2.57;;
71423;SDS011;59240;51.370;-0.486;2023-01-19T05:37:27;9.65;;;2.67;;
71423;SDS011;59240;51.370;-0.486;2023-01-19T05:39:54;7.05;;;2.05;;
71423;SDS011;59240;51.370;-0.486;2023-01-19T05:42:21;9.98;;;2.60;;
71423;SDS011;59240;51.370;-0.486;2023-01-19T05:44:47;10.38;;;2.92;;
71423;SDS011;59240;51.370;-0.486;2023-01-19T05:47:14;15.33;;;3.20;;
71423;SDS011;59240;51.370;-0.486;2023-01-19T05:49:41;9.82;;;2.50;;
71423;SDS011;59240;51.370;-0.486;2023-01-19T05:52:08;10.68;;;2.13;;
71423;SDS011;59240;51.370;-0.486;2023-01-19T05:54:34;7.75;;;2.30;;
71423;SDS011;59240;51.370;-0.486;2023-01-19T05:57:01;9.18;;;2.10;;
71423;SDS011;59240;51.370;-0.486;2023-01-19T05:59:29;9.90;;;2.10;;
71423;SDS011;59240;51.370;-0.486;2023-01-19T06:01:56;10.07;;;2.35;;
71423;SDS011;59240;51.370;-0.486;2023-01-19T06:04:22;7.75;;;2.03;;
71423;SDS011;59240;51.370;-0.486;2023-01-19T06:06:50;8.93;;;2.38;;
71423;SDS011;59240;51.370;-0.486;2023-01-19T06:09:17;12.43;;;2.63;;
71423;SDS011;59240;51.370;-0.486;2023-01-19T06:11:54;7.77;;;2.20;;
71423;SDS011;59240;51.370;-0.486;2023-01-19T06:14:37;11.35;;;2.45;;
71423;SDS011;59240;51.370;-0.486;2023-01-19T06:17:04;10.10;;;2.72;;
71423;SDS011;59240;51.370;-0.486;2023-01-19T06:19:37;11.15;;;2.38;;
71423;SDS011;59240;51.370;-0.486;2023-01-19T06:22:04;9.55;;;2.75;;
71423;SDS011;59240;51.370;-0.486;2023-01-19T06:24:43;9.57;;;2.80;;
71423;SDS011;59240;51.370;-0.486;2023-01-19T06:27:12;12.35;;;3.03;;
71423;SDS011;59240;51.370;-0.486;2023-01-19T06:29:42;10.73;;;2.88;;
71423;SDS011;59240;51.370;-0.486;2023-01-19T06:32:08;10.85;;;3.22;;
71423;SDS011;59240;51.370;-0.486;2023-01-19T06:34:53;9.48;;;2.42;;
71423;SDS011;59240;51.370;-0.486;2023-01-19T06:37:31;9.20;;;2.60;;
71423;SDS011;59240;51.370;-0.486;2023-01-19T06:40:09;12.05;;;3.08;;
71423;SDS011;59240;51.370;-0.486;2023-01-19T06:42:40;11.98;;;2.90;;
71423;SDS011;59240;51.370;-0.486;2023-01-19T06:45:08;14.27;;;2.50;;
71423;SDS011;59240;51.370;-0.486;2023-01-19T06:47:35;9.85;;;2.72;;
71423;SDS011;59240;51.370;-0.486;2023-01-19T06:50:02;14.10;;;3.00;;
71423;SDS011;59240;51.370;-0.486;2023-01-19T06:55:47;9.43;;;2.40;;
71423;SDS011;59240;51.370;-0.486;2023-01-19T06:58:14;11.10;;;2.78;;
71423;SDS011;59240;51.370;-0.486;2023-01-19T07:00:57;11.23;;;2.42;;
71423;SDS011;59240;51.370;-0.486;2023-01-19T07:03:36;11.60;;;3.50;;
71423;SDS011;59240;51.370;-0.486;2023-01-19T07:06:12;12.10;;;3.35;;
71423;SDS011;59240;51.370;-0.486;2023-01-19T07:08:41;8.68;;;2.33;;
71423;SDS011;59240;51.370;-0.486;2023-01-19T07:11:09;10.05;;;3.13;;
71423;SDS011;59240;51.370;-0.486;2023-01-19T07:14:00;10.75;;;2.85;;
71423;SDS011;59240;51.370;-0.486;2023-01-19T07:16:30;14.00;;;3.67;;
71423;SDS011;59240;51.370;-0.486;2023-01-19T07:19:05;10.05;;;3.03;;
71423;SDS011;59240;51.370;-0.486;2023-01-19T07:21:36;14.18;;;2.75;;
71423;SDS011;59240;51.370;-0.486;2023-01-19T07:24:06;10.30;;;2.70;;
71423;SDS011;59240;51.370;-0.486;2023-01-19T07:26:33;7.93;;;2.40;;
71423;SDS011;59240;51.370;-0.486;2023-01-19T07:29:00;12.80;;;3.17;;
71423;SDS011;59240;51.370;-0.486;2023-01-19T07:31:27;10.13;;;2.85;;
71423;SDS011;59240;51.370;-0.486;2023-01-19T07:33:57;7.97;;;2.28;;
71423;SDS011;59240;51.370;-0.486;2023-01-19T07:36:26;10.65;;;2.95;;
71423;SDS011;59240;51.370;-0.486;2023-01-19T07:39:05;13.05;;;2.75;;
71423;SDS011;59240;51.370;-0.486;2023-01-19T07:41:32;9.93;;;2.87;;
71423;SDS011;59240;51.370;-0.486;2023-01-19T07:44:17;10.98;;;2.92;;
71423;SDS011;59240;51.370;-0.486;2023-01-19T07:46:44;14.05;;;3.20;;
71423;SDS011;59240;51.370;-0.486;2023-01-19T07:49:12;10.10;;;2.33;;
71423;SDS011;59240;51.370;-0.486;2023-01-19T07:51:52;10.13;;;2.70;;
71423;SDS011;59240;51.370;-0.486;2023-01-19T07:54:40;17.00;;;3.17;;
71423;SDS011;59240;51.370;-0.486;2023-01-19T07:57:22;10.23;;;3.17;;
71423;SDS011;59240;51.370;-0.486;2023-01-19T08:00:04;10.60;;;3.13;;
71423;SDS011;59240;51.370;-0.486;2023-01-19T08:02:34;12.27;;;3.28;;
71423;SDS011;59240;51.370;-0.486;2023-01-19T08:05:12;11.23;;;3.28;;
71423;SDS011;59240;51.370;-0.486;2023-01-19T08:07:57;17.03;;;3.70;;
71423;SDS011;59240;51.370;-0.486;2023-01-19T08:10:29;12.55;;;3.60;;
71423;SDS011;59240;51.370;-0.486;2023-01-19T08:12:56;13.07;;;3.80;;
71423;SDS011;59240;51.370;-0.486;2023-01-19T08:15:24;12.48;;;3.25;;
71423;SDS011;59240;51.370;-0.486;2023-01-19T08:17:59;11.40;;;3.50;;
71423;SDS011;59240;51.370;-0.486;2023-01-19T08:20:29;13.30;;;3.50;;
71423;SDS011;59240;51.370;-0.486;2023-01-19T08:22:58;13.65;;;3.90;;
71423;SDS011;59240;51.370;-0.486;2023-01-19T08:25:41;16.42;;;3.47;;
71423;SDS011;59240;51.370;-0.486;2023-01-19T08:28:13;13.93;;;3.80;;
71423;SDS011;59240;51.370;-0.486;2023-01-19T08:31:04;11.20;;;3.72;;
71423;SDS011;59240;51.370;-0.486;2023-01-19T08:33:46;14.10;;;4.07;;
71423;SDS011;59240;51.370;-0.486;2023-01-19T08:36:12;13.52;;;4.20;;
71423;SDS011;59240;51.370;-0.486;2023-01-19T08:38:39;17.08;;;4.43;;
71423;SDS011;59240;51.370;-0.486;2023-01-19T08:41:09;13.52;;;4.40;;
71423;SDS011;59240;51.370;-0.486;2023-01-19T08:43:36;12.65;;;3.92;;
71423;SDS011;59240;51.370;-0.486;2023-01-19T08:46:06;13.53;;;3.47;;
71423;SDS011;59240;51.370;-0.486;2023-01-19T08:48:32;11.13;;;3.92;;
71423;SDS011;59240;51.370;-0.486;2023-01-19T08:50:59;13.05;;;3.78;;
71423;SDS011;59240;51.370;-0.486;2023-01-19T08:53:26;16.00;;;4.60;;
71423;SDS011;59240;51.370;-0.486;2023-01-19T08:55:53;16.17;;;3.75;;
71423;SDS011;59240;51.370;-0.486;2023-01-19T08:58:22;11.80;;;3.93;;
71423;SDS011;59240;51.370;-0.486;2023-01-19T09:00:52;14.15;;;4.35;;
71423;SDS011;59240;51.370;-0.486;2023-01-19T09:03:19;13.65;;;3.97;;
71423;SDS011;59240;51.370;-0.486;2023-01-19T09:05:49;14.82;;;4.55;;
71423;SDS011;59240;51.370;-0.486;2023-01-19T09:08:16;12.35;;;3.78;;
71423;SDS011;59240;51.370;-0.486;2023-01-19T09:10:44;12.13;;;3.97;;
71423;SDS011;59240;51.370;-0.486;2023-01-19T09:13:16;11.10;;;3.90;;
71423;SDS011;59240;51.370;-0.486;2023-01-19T09:15:44;10.20;;;3.78;;
71423;SDS011;59240;51.370;-0.486;2023-01-19T09:18:13;12.80;;;3.33;;
71423;SDS011;59240;51.370;-0.486;2023-01-19T09:20:42;14.35;;;3.50;;
71423;SDS011;59240;51.370;-0.486;2023-01-19T09:23:11;11.70;;;4.23;;
71423;SDS011;59240;51.370;-0.486;2023-01-19T09:25:40;10.93;;;2.88;;
71423;SDS011;59240;51.370;-0.486;2023-01-19T09:28:08;12.77;;;3.65;;
71423;SDS011;59240;51.370;-0.486;2023-01-19T09:30:36;13.70;;;3.95;;
71423;SDS011;59240;51.370;-0.486;2023-01-19T09:33:10;11.30;;;4.03;;
71423;SDS011;59240;51.370;-0.486;2023-01-19T09:35:39;10.63;;;3.37;;
71423;SDS011;59240;51.370;-0.486;2023-01-19T09:38:07;12.90;;;4.22;;
71423;SDS011;59240;51.370;-0.486;2023-01-19T09:40:42;11.98;;;4.00;;
71423;SDS011;59240;51.370;-0.486;2023-01-19T09:43:19;13.45;;;3.60;;
71423;SDS011;59240;51.370;-0.486;2023-01-19T09:46:01;15.85;;;4.38;;
71423;SDS011;59240;51.370;-0.486;2023-01-19T09:48:50;10.87;;;4.27;;
71423;SDS011;59240;51.370;-0.486;2023-01-19T09:56:25;14.40;;;4.97;;
71423;SDS011;59240;51.370;-0.486;2023-01-19T09:58:59;10.25;;;4.20;;
71423;SDS011;59240;51.370;-0.486;2023-01-19T10:01:36;13.27;;;4.90;;
71423;SDS011;59240;51.370;-0.486;2023-01-19T10:06:40;14.48;;;4.93;;
71423;SDS011;59240;51.370;-0.486;2023-01-19T10:09:13;20.83;;;5.57;;
71423;SDS011;59240;51.370;-0.486;2023-01-19T10:12:11;18.70;;;5.50;;
71423;SDS011;59240;51.370;-0.486;2023-01-19T10:14:45;12.83;;;5.50;;
71423;SDS011;59240;51.370;-0.486;2023-01-19T10:17:25;16.73;;;5.85;;
71423;SDS011;59240;51.370;-0.486;2023-01-19T10:20:00;17.33;;;6.13;;
71423;SDS011;59240;51.370;-0.486;2023-01-19T10:22:28;16.77;;;5.90;;
71423;SDS011;59240;51.370;-0.486;2023-01-19T10:24:56;16.00;;;5.65;;
71423;SDS011;59240;51.370;-0.486;2023-01-19T10:27:30;14.67;;;6.03;;
71423;SDS011;59240;51.370;-0.486;2023-01-19T10:29:59;18.15;;;5.75;;
71423;SDS011;59240;51.370;-0.486;2023-01-19T10:32:33;16.95;;;5.72;;
71423;SDS011;59240;51.370;-0.486;2023-01-19T10:35:03;20.67;;;5.65;;
71423;SDS011;59240;51.370;-0.486;2023-01-19T10:37:51;15.38;;;6.05;;
71423;SDS011;59240;51.370;-0.486;2023-01-19T10:40:29;18.20;;;5.53;;
71423;SDS011;59240;51.370;-0.486;2023-01-19T10:43:28;17.40;;;5.38;;
71423;SDS011;59240;51.370;-0.486;2023-01-19T10:46:03;17.15;;;5.70;;
71423;SDS011;59240;51.370;-0.486;2023-01-19T10:48:37;18.77;;;5.50;;
71423;SDS011;59240;51.370;-0.486;2023-01-19T10:51:08;11.60;;;4.60;;
71423;SDS011;59240;51.370;-0.486;2023-01-19T10:53:36;15.77;;;4.90;;
71423;SDS011;59240;51.370;-0.486;2023-01-19T10:58:41;16.48;;;5.25;;
71423;SDS011;59240;51.370;-0.486;2023-01-19T11:01:22;16.77;;;4.78;;
71423;SDS011;59240;51.370;-0.486;2023-01-19T11:03:51;15.98;;;4.60;;
71423;SDS011;59240;51.370;-0.486;2023-01-19T11:06:26;14.53;;;5.00;;
71423;SDS011;59240;51.370;-0.486;2023-01-19T11:11:53;14.45;;;5.18;;
71423;SDS011;59240;51.370;-0.486;2023-01-19T11:14:22;16.88;;;5.55;;
71423;SDS011;59240;51.370;-0.486;2023-01-19T11:16:51;17.83;;;5.38;;
71423;SDS011;59240;51.370;-0.486;2023-01-19T11:19:26;14.80;;;5.73;;
71423;SDS011;59240;51.370;-0.486;2023-01-19T11:24:49;15.55;;;5.78;;
71423;SDS011;59240;51.370;-0.486;2023-01-19T11:27:16;14.93;;;5.60;;
71423;SDS011;59240;51.370;-0.486;2023-01-19T11:29:46;14.32;;;5.25;;
71423;SDS011;59240;51.370;-0.486;2023-01-19T11:32:19;17.07;;;6.10;;
71423;SDS011;59240;51.370;-0.486;2023-01-19T11:34:48;15.52;;;5.95;;
71423;SDS011;59240;51.370;-0.486;2023-01-19T11:39:49;21.15;;;6.85;;
71423;SDS011;59240;51.370;-0.486;2023-01-19T11:42:17;17.67;;;6.45;;
71423;SDS011;59240;51.370;-0.486;2023-01-19T11:44:46;13.63;;;5.30;;
71423;SDS011;59240;51.370;-0.486;2023-01-19T11:47:18;16.05;;;5.00;;
71423;SDS011;59240;51.370;-0.486;2023-01-19T11:49:58;14.25;;;4.90;;
71423;SDS011;59240;51.370;-0.486;2023-01-19T11:52:41;17.25;;;5.05;;
71423;SDS011;59240;51.370;-0.486;2023-01-19T11:58:04;17.60;;;4.83;;
71423;SDS011;59240;51.370;-0.486;2023-01-19T12:00:41;14.52;;;5.10;;
71423;SDS011;59240;51.370;-0.486;2023-01-19T12:06:16;15.55;;;4.45;;
71423;SDS011;59240;51.370;-0.486;2023-01-19T12:08:50;15.07;;;3.80;;
71423;SDS011;59240;51.370;-0.486;2023-01-19T12:11:30;11.87;;;2.67;;
71423;SDS011;59240;51.370;-0.486;2023-01-19T12:14:01;10.90;;;2.63;;
71423;SDS011;59240;51.370;-0.486;2023-01-19T12:16:28;9.40;;;1.92;;
71423;SDS011;59240;51.370;-0.486;2023-01-19T12:19:05;8.93;;;1.42;;
71423;SDS011;59240;51.370;-0.486;2023-01-19T12:21:38;8.85;;;1.42;;
71423;SDS011;59240;51.370;-0.486;2023-01-19T12:26:56;18.83;;;7.22;;
71423;SDS011;59240;51.370;-0.486;2023-01-19T12:29:34;19.38;;;6.03;;
71423;SDS011;59240;51.370;-0.486;2023-01-19T12:34:45;17.75;;;5.63;;
71423;SDS011;59240;51.370;-0.486;2023-01-19T12:39:58;14.85;;;4.90;;
71423;SDS011;59240;51.370;-0.486;2023-01-19T12:42:28;15.57;;;5.40;;
71423;SDS011;59240;51.370;-0.486;2023-01-19T12:45:05;18.10;;;5.15;;
71423;SDS011;59240;51.370;-0.486;2023-01-19T12:47:37;12.75;;;3.38;;
71423;SDS011;59240;51.370;-0.486;2023-01-19T12:50:05;12.37;;;2.37;;
71423;SDS011;59240;51.370;-0.486;2023-01-19T12:52:40;10.73;;;2.60;;
71423;SDS011;59240;51.370;-0.486;2023-01-19T12:55:21;10.82;;;1.65;;
71423;SDS011;59240;51.370;-0.486;2023-01-19T13:02:57;12.17;;;1.50;;
71423;SDS011;59240;51.370;-0.486;2023-01-19T13:13:25;8.82;;;1.08;;
71423;SDS011;59240;51.370;-0.486;2023-01-19T13:15:54;5.00;;;0.93;;
71423;SDS011;59240;51.370;-0.486;2023-01-19T13:18:27;7.13;;;1.10;;
71423;SDS011;59240;51.370;-0.486;2023-01-19T13:20:57;8.80;;;1.05;;
71423;SDS011;59240;51.370;-0.486;2023-01-19T13:23:27;4.85;;;0.65;;
71423;SDS011;59240;51.370;-0.486;2023-01-19T13:26:18;5.75;;;0.80;;
71423;SDS011;59240;51.370;-0.486;2023-01-19T13:29:05;6.67;;;0.90;;
71423;SDS011;59240;51.370;-0.486;2023-01-19T13:31:38;6.22;;;0.60;;
71423;SDS011;59240;51.370;-0.486;2023-01-19T13:34:11;8.32;;;0.98;;
71423;SDS011;59240;51.370;-0.486;2023-01-19T13:36:42;7.65;;;0.85;;
71423;SDS011;59240;51.370;-0.486;2023-01-19T13:39:11;8.00;;;1.20;;
71423;SDS011;59240;51.370;-0.486;2023-01-19T13:41:43;5.67;;;1.30;;
71423;SDS011;59240;51.370;-0.486;2023-01-19T13:46:50;4.43;;;0.80;;
71423;SDS011;59240;51.370;-0.486;2023-01-19T13:54:32;6.83;;;0.80;;
71423;SDS011;59240;51.370;-0.486;2023-01-19T13:56:58;5.80;;;0.60;;
71423;SDS011;59240;51.370;-0.486;2023-01-19T13:59:25;6.03;;;1.17;;
71423;SDS011;59240;51.370;-0.486;2023-01-19T14:01:52;6.63;;;1.35;;
71423;SDS011;59240;51.370;-0.486;2023-01-19T14:04:27;6.47;;;0.95;;
71423;SDS011;59240;51.370;-0.486;2023-01-19T14:06:59;5.47;;;0.93;;
71423;SDS011;59240;51.370;-0.486;2023-01-19T14:09:29;7.38;;;1.00;;
71423;SDS011;59240;51.370;-0.486;2023-01-19T14:12:03;5.82;;;0.82;;
71423;SDS011;59240;51.370;-0.486;2023-01-19T14:14:41;6.50;;;1.00;;
71423;SDS011;59240;51.370;-0.486;2023-01-19T14:19:51;5.27;;;1.07;;
71423;SDS011;59240;51.370;-0.486;2023-01-19T14:22:20;9.75;;;1.13;;
71423;SDS011;59240;51.370;-0.486;2023-01-19T14:24:47;8.68;;;1.60;;
71423;SDS011;59240;51.370;-0.486;2023-01-19T14:27:18;11.70;;;1.77;;
71423;SDS011;59240;51.370;-0.486;2023-01-19T14:29:47;7.07;;;1.50;;
71423;SDS011;59240;51.370;-0.486;2023-01-19T14:32:22;6.83;;;1.30;;
71423;SDS011;59240;51.370;-0.486;2023-01-19T14:37:34;6.60;;;1.50;;
71423;SDS011;59240;51.370;-0.486;2023-01-19T14:45:26;6.47;;;1.40;;
71423;SDS011;59240;51.370;-0.486;2023-01-19T14:47:59;7.47;;;1.73;;
71423;SDS011;59240;51.370;-0.486;2023-01-19T14:50:34;6.63;;;1.63;;
71423;SDS011;59240;51.370;-0.486;2023-01-19T14:53:05;11.13;;;1.67;;
71423;SDS011;59240;51.370;-0.486;2023-01-19T14:55:47;6.85;;;1.38;;
71423;SDS011;59240;51.370;-0.486;2023-01-19T14:58:17;8.97;;;2.03;;
71423;SDS011;59240;51.370;-0.486;2023-01-19T15:00:45;9.43;;;1.77;;
71423;SDS011;59240;51.370;-0.486;2023-01-19T15:03:13;8.65;;;1.50;;
71423;SDS011;59240;51.370;-0.486;2023-01-19T15:05:43;9.50;;;1.05;;
71423;SDS011;59240;51.370;-0.486;2023-01-19T15:08:19;8.32;;;1.30;;
71423;SDS011;59240;51.370;-0.486;2023-01-19T15:11:04;6.93;;;1.03;;
71423;SDS011;59240;51.370;-0.486;2023-01-19T15:13:37;7.95;;;1.42;;
71423;SDS011;59240;51.370;-0.486;2023-01-19T15:16:05;6.85;;;0.70;;
71423;SDS011;59240;51.370;-0.486;2023-01-19T15:18:34;3.33;;;0.40;;
71423;SDS011;59240;51.370;-0.486;2023-01-19T15:21:01;7.05;;;0.98;;
71423;SDS011;59240;51.370;-0.486;2023-01-19T15:23:28;4.53;;;1.00;;
71423;SDS011;59240;51.370;-0.486;2023-01-19T15:26:00;6.70;;;0.88;;
71423;SDS011;59240;51.370;-0.486;2023-01-19T15:28:29;4.72;;;0.80;;
71423;SDS011;59240;51.370;-0.486;2023-01-19T15:30:56;7.38;;;0.70;;
71423;SDS011;59240;51.370;-0.486;2023-01-19T15:33:25;8.95;;;0.82;;
71423;SDS011;59240;51.370;-0.486;2023-01-19T15:35:55;6.50;;;1.10;;
71423;SDS011;59240;51.370;-0.486;2023-01-19T15:38:22;4.47;;;0.98;;
71423;SDS011;59240;51.370;-0.486;2023-01-19T15:40:49;4.55;;;0.73;;
71423;SDS011;59240;51.370;-0.486;2023-01-19T15:43:16;7.13;;;0.90;;
71423;SDS011;59240;51.370;-0.486;2023-01-19T15:45:47;12.32;;;0.88;;
71423;SDS011;59240;51.370;-0.486;2023-01-19T15:48:18;5.97;;;1.30;;
71423;SDS011;59240;51.370;-0.486;2023-01-19T15:50:45;10.20;;;1.17;;
71423;SDS011;59240;51.370;-0.486;2023-01-19T15:53:14;5.80;;;0.98;;
71423;SDS011;59240;51.370;-0.486;2023-01-19T15:55:42;6.82;;;1.00;;
71423;SDS011;59240;51.370;-0.486;2023-01-19T15:58:10;8.88;;;1.08;;
71423;SDS011;59240;51.370;-0.486;2023-01-19T16:00:40;11.50;;;1.50;;
71423;SDS011;59240;51.370;-0.486;2023-01-19T16:03:07;7.97;;;1.00;;
71423;SDS011;59240;51.370;-0.486;2023-01-19T16:05:35;8.90;;;1.48;;
71423;SDS011;59240;51.370;-0.486;2023-01-19T16:08:11;9.85;;;1.20;;
71423;SDS011;59240;51.370;-0.486;2023-01-19T16:10:39;7.18;;;0.90;;
71423;SDS011;59240;51.370;-0.486;2023-01-19T16:13:07;11.87;;;1.07;;